createdAt,value
2019-01-31T00:00:42.886Z,994.52
2019-01-31T00:01:42.876Z,994.54
2019-01-31T00:02:42.865Z,994.54
2019-01-31T00:03:42.857Z,994.46
2019-01-31T00:04:42.855Z,994.45
2019-01-31T00:05:42.834Z,994.45
2019-01-31T00:06:42.822Z,994.46
2019-01-31T00:07:42.811Z,994.52
2019-01-31T00:08:46.046Z,994.54
2019-01-31T00:09:42.815Z,994.51
2019-01-31T00:10:42.777Z,994.56
2019-01-31T00:11:42.769Z,994.51
2019-01-31T00:12:42.758Z,994.54
2019-01-31T00:13:42.748Z,994.57
2019-01-31T00:14:42.891Z,994.58
2019-01-31T00:15:42.739Z,994.58
2019-01-31T00:16:42.714Z,994.60
2019-01-31T00:17:42.707Z,994.57
2019-01-31T00:18:42.702Z,994.62
2019-01-31T00:19:42.694Z,994.60
2019-01-31T00:20:42.674Z,994.60
2019-01-31T00:21:42.660Z,994.57
2019-01-31T00:22:42.657Z,994.57
2019-01-31T00:23:42.647Z,994.61
2019-01-31T00:24:42.646Z,994.60
2019-01-31T00:25:42.760Z,994.52
2019-01-31T00:26:42.613Z,994.52
2019-01-31T00:27:42.605Z,994.55
2019-01-31T00:28:42.597Z,994.54
2019-01-31T00:29:42.613Z,994.55
2019-01-31T00:30:42.580Z,994.58
2019-01-31T00:31:42.560Z,994.54
2019-01-31T00:32:42.553Z,994.57
2019-01-31T00:33:42.543Z,994.56
2019-01-31T00:34:42.537Z,994.55
2019-01-31T00:35:42.542Z,994.54
2019-01-31T00:36:42.511Z,994.51
2019-01-31T00:37:42.498Z,994.52
2019-01-31T00:38:42.485Z,994.47
2019-01-31T00:39:42.481Z,994.54
2019-01-31T00:40:42.487Z,994.52
2019-01-31T00:41:42.459Z,994.55
2019-01-31T00:42:42.445Z,994.58
2019-01-31T00:43:42.437Z,994.53
2019-01-31T00:44:42.435Z,994.57
2019-01-31T00:45:42.438Z,994.60
2019-01-31T00:46:42.409Z,994.54
2019-01-31T00:47:42.399Z,994.55
2019-01-31T00:48:42.387Z,994.55
2019-01-31T00:49:42.377Z,994.56
2019-01-31T00:50:42.384Z,994.57
2019-01-31T00:51:42.353Z,994.54
2019-01-31T00:52:42.345Z,994.51
2019-01-31T00:53:42.334Z,994.61
2019-01-31T00:54:42.324Z,994.55
2019-01-31T00:55:42.330Z,994.59
2019-01-31T00:56:42.311Z,994.63
2019-01-31T00:57:42.300Z,994.63
2019-01-31T00:58:42.280Z,994.64
2019-01-31T00:59:42.367Z,994.62
2019-01-31T01:00:42.284Z,994.61
2019-01-31T01:01:42.255Z,994.66
2019-01-31T01:02:42.241Z,994.64
2019-01-31T01:03:42.230Z,994.61
2019-01-31T01:04:42.220Z,994.66
2019-01-31T01:05:42.210Z,994.70
2019-01-31T01:06:42.214Z,994.70
2019-01-31T01:07:42.188Z,994.67
2019-01-31T01:08:42.180Z,994.68
2019-01-31T01:09:42.175Z,994.62
2019-01-31T01:10:42.161Z,994.67
2019-01-31T01:11:42.160Z,994.74
2019-01-31T01:12:42.139Z,994.65
2019-01-31T01:13:42.146Z,994.65
2019-01-31T01:14:42.120Z,994.73
2019-01-31T01:15:42.107Z,994.66
2019-01-31T01:16:42.132Z,994.68
2019-01-31T01:17:42.094Z,994.70
2019-01-31T01:18:42.079Z,994.60
2019-01-31T01:19:42.069Z,994.72
2019-01-31T01:20:42.056Z,994.68
2019-01-31T01:21:42.067Z,994.69
2019-01-31T01:22:42.035Z,994.81
2019-01-31T01:23:42.025Z,994.73
2019-01-31T01:24:42.020Z,994.82
2019-01-31T01:25:42.006Z,994.79
2019-01-31T01:26:42.018Z,994.84
2019-01-31T01:27:41.988Z,994.86
2019-01-31T01:28:41.978Z,994.84
2019-01-31T01:29:41.973Z,994.85
2019-01-31T01:30:41.963Z,994.86
2019-01-31T01:31:41.970Z,994.83
2019-01-31T01:32:41.939Z,994.84
2019-01-31T01:33:41.927Z,994.84
2019-01-31T01:34:41.920Z,994.86
2019-01-31T01:35:41.904Z,994.79
2019-01-31T01:36:41.913Z,994.86
2019-01-31T01:37:41.886Z,994.78
2019-01-31T01:38:41.876Z,994.77
2019-01-31T01:39:41.867Z,994.83
2019-01-31T01:40:41.860Z,994.75
2019-01-31T01:41:41.863Z,994.79
2019-01-31T01:42:41.835Z,994.74
2019-01-31T01:43:41.826Z,994.78
2019-01-31T01:44:41.819Z,994.75
2019-01-31T01:45:41.805Z,994.72
2019-01-31T01:46:41.810Z,994.76
2019-01-31T01:47:41.779Z,994.76
2019-01-31T01:48:41.773Z,994.75
2019-01-31T01:49:41.767Z,994.77
2019-01-31T01:50:41.756Z,994.78
2019-01-31T01:51:41.769Z,994.76
2019-01-31T01:52:41.740Z,994.75
2019-01-31T01:53:41.728Z,994.79
2019-01-31T01:54:41.718Z,994.74
2019-01-31T01:55:41.705Z,994.71
2019-01-31T01:56:41.693Z,994.71
2019-01-31T01:57:41.698Z,994.72
2019-01-31T01:58:41.673Z,994.73
2019-01-31T01:59:41.666Z,994.76
2019-01-31T02:00:41.664Z,994.77
2019-01-31T02:01:41.644Z,994.77
2019-01-31T02:02:41.646Z,994.77
2019-01-31T02:03:41.622Z,994.74
2019-01-31T02:04:41.618Z,994.74
2019-01-31T02:05:41.606Z,994.75
2019-01-31T02:06:41.593Z,994.76
2019-01-31T02:07:41.591Z,994.73
2019-01-31T02:08:41.573Z,994.74
2019-01-31T02:09:41.562Z,994.71
2019-01-31T02:10:41.555Z,994.74
2019-01-31T02:11:41.542Z,994.81
2019-01-31T02:12:41.544Z,994.77
2019-01-31T02:13:41.526Z,994.77
2019-01-31T02:14:41.506Z,994.76
2019-01-31T02:15:41.502Z,994.78
2019-01-31T02:16:41.488Z,994.79
2019-01-31T02:17:41.500Z,994.79
2019-01-31T02:18:41.464Z,994.78
2019-01-31T02:19:41.456Z,994.77
2019-01-31T02:20:41.448Z,994.75
2019-01-31T02:21:41.440Z,994.78
2019-01-31T02:22:41.450Z,994.72
2019-01-31T02:23:41.417Z,994.76
2019-01-31T02:24:41.403Z,994.72
2019-01-31T02:25:41.395Z,994.71
2019-01-31T02:26:41.387Z,994.67
2019-01-31T02:27:41.374Z,994.71
2019-01-31T02:28:41.382Z,994.69
2019-01-31T02:29:41.358Z,994.72
2019-01-31T02:30:41.347Z,994.67
2019-01-31T02:31:41.335Z,994.69
2019-01-31T02:32:41.326Z,994.70
2019-01-31T02:33:41.325Z,994.74
2019-01-31T02:34:41.308Z,994.68
2019-01-31T02:35:41.298Z,994.72
2019-01-31T02:36:41.288Z,994.77
2019-01-31T02:37:41.275Z,994.70
2019-01-31T02:38:41.277Z,994.73
2019-01-31T02:39:43.192Z,994.67
2019-01-31T02:40:41.242Z,994.66
2019-01-31T02:41:41.232Z,994.67
2019-01-31T02:42:41.222Z,994.65
2019-01-31T02:43:41.229Z,994.72
2019-01-31T02:44:41.201Z,994.65
2019-01-31T02:45:41.193Z,994.65
2019-01-31T02:46:41.204Z,994.63
2019-01-31T02:47:41.169Z,994.68
2019-01-31T02:48:41.179Z,994.64
2019-01-31T02:49:41.154Z,994.68
2019-01-31T02:50:41.142Z,994.65
2019-01-31T02:51:41.134Z,994.73
2019-01-31T02:52:41.118Z,994.69
2019-01-31T02:53:41.124Z,994.74
2019-01-31T02:54:41.102Z,994.73
2019-01-31T02:55:41.098Z,994.72
2019-01-31T02:56:41.083Z,994.75
2019-01-31T02:57:41.068Z,994.71
2019-01-31T02:58:41.068Z,994.74
2019-01-31T02:59:41.050Z,994.75
2019-01-31T03:00:41.037Z,994.69
2019-01-31T03:01:41.031Z,994.75
2019-01-31T03:02:41.014Z,994.74
2019-01-31T03:03:41.024Z,994.73
2019-01-31T03:04:40.993Z,994.71
2019-01-31T03:05:40.985Z,994.67
2019-01-31T03:06:40.983Z,994.70
2019-01-31T03:07:40.963Z,994.74
2019-01-31T03:08:40.974Z,994.72
2019-01-31T03:09:40.940Z,994.78
2019-01-31T03:10:40.931Z,994.77
2019-01-31T03:11:40.923Z,994.72
2019-01-31T03:12:40.911Z,994.76
2019-01-31T03:13:40.920Z,994.73
2019-01-31T03:14:40.887Z,994.75
2019-01-31T03:15:40.877Z,994.77
2019-01-31T03:16:40.866Z,994.76
2019-01-31T03:17:40.854Z,994.67
2019-01-31T03:18:40.846Z,994.73
2019-01-31T03:19:40.853Z,994.74
2019-01-31T03:20:40.822Z,994.74
2019-01-31T03:21:40.816Z,994.71
2019-01-31T03:22:41.659Z,994.73
2019-01-31T03:23:40.793Z,994.71
2019-01-31T03:24:40.794Z,994.72
2019-01-31T03:25:40.771Z,994.72
2019-01-31T03:26:40.762Z,994.75
2019-01-31T03:27:40.756Z,994.84
2019-01-31T03:28:40.741Z,994.76
2019-01-31T03:29:40.748Z,994.80
2019-01-31T03:30:40.718Z,994.82
2019-01-31T03:31:40.731Z,994.89
2019-01-31T03:32:40.707Z,994.85
2019-01-31T03:33:40.689Z,994.80
2019-01-31T03:34:40.684Z,994.83
2019-01-31T03:35:40.665Z,994.87
2019-01-31T03:36:40.657Z,994.83
2019-01-31T03:37:40.643Z,994.83
2019-01-31T03:38:40.635Z,994.83
2019-01-31T03:39:40.641Z,994.84
2019-01-31T03:40:40.625Z,994.85
2019-01-31T03:41:40.602Z,994.86
2019-01-31T03:42:40.591Z,994.84
2019-01-31T03:43:40.583Z,994.80
2019-01-31T03:44:40.590Z,994.85
2019-01-31T03:45:40.562Z,994.83
2019-01-31T03:46:40.546Z,994.84
2019-01-31T03:47:40.540Z,994.83
2019-01-31T03:48:40.525Z,994.87
2019-01-31T03:49:40.529Z,994.86
2019-01-31T03:50:40.501Z,994.87
2019-01-31T03:51:40.494Z,994.83
2019-01-31T03:52:40.487Z,994.85
2019-01-31T03:53:40.469Z,994.85
2019-01-31T03:54:40.484Z,994.84
2019-01-31T03:55:40.454Z,994.83
2019-01-31T03:56:40.440Z,994.87
2019-01-31T03:57:40.431Z,994.82
2019-01-31T03:58:40.416Z,994.88
2019-01-31T03:59:40.426Z,994.91
2019-01-31T04:00:40.398Z,994.92
2019-01-31T04:01:40.386Z,994.86
2019-01-31T04:02:40.374Z,994.87
2019-01-31T04:03:40.364Z,994.88
2019-01-31T04:04:40.367Z,994.88
2019-01-31T04:05:40.350Z,994.92
2019-01-31T04:06:40.338Z,994.86
2019-01-31T04:07:40.325Z,994.85
2019-01-31T04:08:40.315Z,994.90
2019-01-31T04:09:40.330Z,994.88
2019-01-31T04:10:40.295Z,994.88
2019-01-31T04:11:40.280Z,994.92
2019-01-31T04:12:40.269Z,994.91
2019-01-31T04:13:40.264Z,994.91
2019-01-31T04:14:40.252Z,994.87
2019-01-31T04:15:40.255Z,994.89
2019-01-31T04:16:40.226Z,994.85
2019-01-31T04:17:40.217Z,994.91
2019-01-31T04:18:40.245Z,994.88
2019-01-31T04:19:40.195Z,994.92
2019-01-31T04:20:40.196Z,994.89
2019-01-31T04:21:40.182Z,994.96
2019-01-31T04:22:40.164Z,994.93
2019-01-31T04:23:40.218Z,994.96
2019-01-31T04:24:40.146Z,994.92
2019-01-31T04:25:40.145Z,994.93
2019-01-31T04:26:40.125Z,994.88
2019-01-31T04:27:40.110Z,994.86
2019-01-31T04:28:40.102Z,994.87
2019-01-31T04:29:40.094Z,994.85
2019-01-31T04:30:40.095Z,994.89
2019-01-31T04:31:40.065Z,994.90
2019-01-31T04:32:40.056Z,994.98
2019-01-31T04:33:40.043Z,994.93
2019-01-31T04:34:40.033Z,994.97
2019-01-31T04:35:40.035Z,994.92
2019-01-31T04:36:40.016Z,994.96
2019-01-31T04:37:40.026Z,994.90
2019-01-31T04:38:39.989Z,994.89
2019-01-31T04:39:39.975Z,994.91
2019-01-31T04:40:39.989Z,994.91
2019-01-31T04:41:39.966Z,994.92
2019-01-31T04:42:39.953Z,994.98
2019-01-31T04:43:39.934Z,994.97
2019-01-31T04:44:39.925Z,994.93
2019-01-31T04:45:39.940Z,994.99
2019-01-31T04:46:39.913Z,995.01
2019-01-31T04:47:39.893Z,994.96
2019-01-31T04:48:39.882Z,994.93
2019-01-31T04:49:39.876Z,994.93
2019-01-31T04:50:39.862Z,994.90
2019-01-31T04:51:39.874Z,994.90
2019-01-31T04:52:39.843Z,994.94
2019-01-31T04:53:39.830Z,994.91
2019-01-31T04:54:39.818Z,995.00
2019-01-31T04:55:39.807Z,994.95
2019-01-31T04:56:39.809Z,994.98
2019-01-31T04:57:39.789Z,994.99
2019-01-31T04:58:39.775Z,994.98
2019-01-31T04:59:39.765Z,995.04
2019-01-31T05:00:39.763Z,995.02
2019-01-31T05:01:39.758Z,995.01
2019-01-31T05:02:39.737Z,995.01
2019-01-31T05:03:39.722Z,995.02
2019-01-31T05:04:39.712Z,994.99
2019-01-31T05:05:39.703Z,995.03
2019-01-31T05:06:39.703Z,995.07
2019-01-31T05:07:39.861Z,995.08
2019-01-31T05:08:39.664Z,995.06
2019-01-31T05:09:39.668Z,995.10
2019-01-31T05:10:43.263Z,995.04
2019-01-31T05:11:39.650Z,995.07
2019-01-31T05:12:39.625Z,995.08
2019-01-31T05:13:39.615Z,995.06
2019-01-31T05:14:39.612Z,995.09
2019-01-31T05:15:39.596Z,995.08
2019-01-31T05:16:39.615Z,995.12
2019-01-31T05:17:39.577Z,995.12
2019-01-31T05:18:39.565Z,995.13
2019-01-31T05:19:39.557Z,995.16
2019-01-31T05:20:39.541Z,995.15
2019-01-31T05:21:39.533Z,995.15
2019-01-31T05:22:39.557Z,995.16
2019-01-31T05:23:39.513Z,995.20
2019-01-31T05:24:39.501Z,995.16
2019-01-31T05:25:39.490Z,995.20
2019-01-31T05:26:39.487Z,995.20
2019-01-31T05:27:39.487Z,995.18
2019-01-31T05:28:39.458Z,995.21
2019-01-31T05:29:39.451Z,995.22
2019-01-31T05:30:39.438Z,995.22
2019-01-31T05:31:39.427Z,995.21
2019-01-31T05:32:39.437Z,995.21
2019-01-31T05:33:39.409Z,995.19
2019-01-31T05:34:39.397Z,995.20
2019-01-31T05:35:39.393Z,995.25
2019-01-31T05:36:39.380Z,995.24
2019-01-31T05:37:39.387Z,995.26
2019-01-31T05:38:39.355Z,995.23
2019-01-31T05:39:39.353Z,995.26
2019-01-31T05:40:39.335Z,995.26
2019-01-31T05:41:39.332Z,995.28
2019-01-31T05:42:39.329Z,995.34
2019-01-31T05:43:39.319Z,995.34
2019-01-31T05:44:39.300Z,995.34
2019-01-31T05:45:39.294Z,995.34
2019-01-31T05:46:39.286Z,995.34
2019-01-31T05:47:39.282Z,995.31
2019-01-31T05:48:39.252Z,995.35
2019-01-31T05:49:39.247Z,995.35
2019-01-31T05:50:39.246Z,995.35
2019-01-31T05:51:39.523Z,995.31
2019-01-31T05:52:39.236Z,995.28
2019-01-31T05:53:39.205Z,995.31
2019-01-31T05:54:39.195Z,995.35
2019-01-31T05:55:39.183Z,995.32
2019-01-31T05:56:39.175Z,995.35
2019-01-31T05:57:39.172Z,995.38
2019-01-31T05:58:39.167Z,995.39
2019-01-31T05:59:39.148Z,995.39
2019-01-31T06:00:39.137Z,995.43
2019-01-31T06:01:39.143Z,995.47
2019-01-31T06:02:39.131Z,995.46
2019-01-31T06:03:39.097Z,995.51
2019-01-31T06:04:39.091Z,995.57
2019-01-31T06:05:39.082Z,995.48
2019-01-31T06:06:39.071Z,995.48
2019-01-31T06:07:39.073Z,995.49
2019-01-31T06:08:39.045Z,995.46
2019-01-31T06:09:39.036Z,995.43
2019-01-31T06:10:39.029Z,995.46
2019-01-31T06:11:39.013Z,995.43
2019-01-31T06:12:39.020Z,995.44
2019-01-31T06:13:38.999Z,995.49
2019-01-31T06:14:38.981Z,995.48
2019-01-31T06:15:38.972Z,995.56
2019-01-31T06:16:38.962Z,995.53
2019-01-31T06:17:38.967Z,995.50
2019-01-31T06:18:38.939Z,995.54
2019-01-31T06:19:38.927Z,995.50
2019-01-31T06:20:38.920Z,995.56
2019-01-31T06:21:38.911Z,995.62
2019-01-31T06:22:38.931Z,995.56
2019-01-31T06:23:38.893Z,995.56
2019-01-31T06:24:38.883Z,995.59
2019-01-31T06:25:38.871Z,995.58
2019-01-31T06:26:38.861Z,995.61
2019-01-31T06:27:38.845Z,995.67
2019-01-31T06:28:38.852Z,995.64
2019-01-31T06:29:38.840Z,995.60
2019-01-31T06:30:38.807Z,995.56
2019-01-31T06:31:38.803Z,995.64
2019-01-31T06:32:38.798Z,995.63
2019-01-31T06:33:38.788Z,995.63
2019-01-31T06:34:38.777Z,995.65
2019-01-31T06:35:38.769Z,995.62
2019-01-31T06:36:38.754Z,995.63
2019-01-31T06:37:38.744Z,995.63
2019-01-31T06:38:38.747Z,995.62
2019-01-31T06:39:38.719Z,995.66
2019-01-31T06:40:38.709Z,995.67
2019-01-31T06:41:38.704Z,995.66
2019-01-31T06:42:38.695Z,995.74
2019-01-31T06:43:38.691Z,995.77
2019-01-31T06:44:38.664Z,995.81
2019-01-31T06:45:38.654Z,995.85
2019-01-31T06:46:38.642Z,995.80
2019-01-31T06:47:38.637Z,995.84
2019-01-31T06:48:38.639Z,995.86
2019-01-31T06:49:38.620Z,995.84
2019-01-31T06:50:38.603Z,995.84
2019-01-31T06:51:38.596Z,995.87
2019-01-31T06:52:38.586Z,995.88
2019-01-31T06:53:38.591Z,995.83
2019-01-31T06:54:38.568Z,995.83
2019-01-31T06:55:38.551Z,995.79
2019-01-31T06:56:38.552Z,995.78
2019-01-31T06:57:38.532Z,995.81
2019-01-31T06:58:41.063Z,995.85
2019-01-31T06:59:38.518Z,995.90
2019-01-31T07:00:38.505Z,995.84
2019-01-31T07:01:38.498Z,995.88
2019-01-31T07:02:38.484Z,995.89
2019-01-31T07:03:38.490Z,995.91
2019-01-31T07:04:38.468Z,995.95
2019-01-31T07:05:38.451Z,995.94
2019-01-31T07:06:38.441Z,996.01
2019-01-31T07:07:38.428Z,995.93
2019-01-31T07:08:38.461Z,995.96
2019-01-31T07:09:38.413Z,995.94
2019-01-31T07:10:38.409Z,995.90
2019-01-31T07:11:38.383Z,995.91
2019-01-31T07:12:38.377Z,995.92
2019-01-31T07:13:38.368Z,995.95
2019-01-31T07:14:38.380Z,995.97
2019-01-31T07:15:38.354Z,995.96
2019-01-31T07:16:38.343Z,995.92
2019-01-31T07:17:38.334Z,995.94
2019-01-31T07:18:38.311Z,995.94
2019-01-31T07:19:38.313Z,995.92
2019-01-31T07:20:38.288Z,995.93
2019-01-31T07:21:38.279Z,995.95
2019-01-31T07:22:38.270Z,995.93
2019-01-31T07:23:38.275Z,995.95
2019-01-31T07:24:38.280Z,995.92
2019-01-31T07:25:38.244Z,995.92
2019-01-31T07:26:38.228Z,995.91
2019-01-31T07:27:38.221Z,995.94
2019-01-31T07:28:38.213Z,995.90
2019-01-31T07:29:38.210Z,995.92
2019-01-31T07:30:38.187Z,995.90
2019-01-31T07:31:38.185Z,995.85
2019-01-31T07:32:38.160Z,995.88
2019-01-31T07:33:38.230Z,995.91
2019-01-31T07:34:38.160Z,995.95
2019-01-31T07:35:38.131Z,995.90
2019-01-31T07:36:38.120Z,995.95
2019-01-31T07:37:38.136Z,995.97
2019-01-31T07:38:38.103Z,995.93
2019-01-31T07:39:38.100Z,995.95
2019-01-31T07:40:38.083Z,995.94
2019-01-31T07:41:41.525Z,995.95
2019-01-31T07:42:38.064Z,995.92
2019-01-31T07:43:38.063Z,995.98
2019-01-31T07:44:38.066Z,995.94
2019-01-31T07:45:38.031Z,996.00
2019-01-31T07:46:38.018Z,995.99
2019-01-31T07:47:38.011Z,996.03
2019-01-31T07:48:38.001Z,995.99
2019-01-31T07:49:37.991Z,996.01
2019-01-31T07:50:37.995Z,996.04
2019-01-31T07:51:37.968Z,996.06
2019-01-31T07:52:37.959Z,996.08
2019-01-31T07:53:37.942Z,996.05
2019-01-31T07:54:37.933Z,996.05
2019-01-31T07:55:37.952Z,996.02
2019-01-31T07:56:37.913Z,996.08
2019-01-31T07:57:37.901Z,996.08
2019-01-31T07:58:37.890Z,996.04
2019-01-31T07:59:37.884Z,996.06
2019-01-31T08:00:38.268Z,996.01
2019-01-31T08:01:40.715Z,996.04
2019-01-31T08:02:37.854Z,996.02
2019-01-31T08:03:40.669Z,996.10
2019-01-31T08:04:37.831Z,996.04
2019-01-31T08:05:37.832Z,996.08
2019-01-31T08:06:37.814Z,996.10
2019-01-31T08:07:37.795Z,996.04
2019-01-31T08:08:37.782Z,996.03
2019-01-31T08:09:37.772Z,996.07
2019-01-31T08:10:37.780Z,996.05
2019-01-31T08:11:37.753Z,996.06
2019-01-31T08:12:37.745Z,996.12
2019-01-31T08:13:37.737Z,996.08
2019-01-31T08:14:37.722Z,996.16
2019-01-31T08:15:37.728Z,996.18
2019-01-31T08:16:37.703Z,996.19
2019-01-31T08:17:37.698Z,996.21
2019-01-31T08:18:37.681Z,996.20
2019-01-31T08:19:37.666Z,996.22
2019-01-31T08:20:37.671Z,996.27
2019-01-31T08:21:37.656Z,996.22
2019-01-31T08:22:37.638Z,996.22
2019-01-31T08:23:37.624Z,996.26
2019-01-31T08:24:37.610Z,996.23
2019-01-31T08:25:37.627Z,996.22
2019-01-31T08:26:37.593Z,996.21
2019-01-31T08:27:37.583Z,996.25
2019-01-31T08:28:37.574Z,996.27
2019-01-31T08:29:37.562Z,996.21
2019-01-31T08:30:38.003Z,996.27
2019-01-31T08:31:37.541Z,996.27
2019-01-31T08:32:37.533Z,996.25
2019-01-31T08:33:37.528Z,996.26
2019-01-31T08:34:37.512Z,996.29
2019-01-31T08:35:37.500Z,996.27
2019-01-31T08:36:37.498Z,996.31
2019-01-31T08:37:37.475Z,996.31
2019-01-31T08:38:37.467Z,996.27
2019-01-31T08:39:37.453Z,996.37
2019-01-31T08:40:37.442Z,996.30
2019-01-31T08:41:37.452Z,996.37
2019-01-31T08:42:37.425Z,996.35
2019-01-31T08:43:37.412Z,996.38
2019-01-31T08:44:37.399Z,996.40
2019-01-31T08:45:37.387Z,996.40
2019-01-31T08:46:37.394Z,996.34
2019-01-31T08:47:37.370Z,996.36
2019-01-31T08:48:37.357Z,996.34
2019-01-31T08:49:37.349Z,996.35
2019-01-31T08:50:37.335Z,996.40
2019-01-31T08:51:37.348Z,996.40
2019-01-31T08:52:37.316Z,996.38
2019-01-31T08:53:37.306Z,996.39
2019-01-31T08:54:37.305Z,996.42
2019-01-31T08:55:37.290Z,996.37
2019-01-31T08:56:37.280Z,996.37
2019-01-31T08:57:37.267Z,996.43
2019-01-31T08:58:37.256Z,996.40
2019-01-31T08:59:37.250Z,996.45
2019-01-31T09:00:37.264Z,996.48
2019-01-31T09:01:37.258Z,996.48
2019-01-31T09:02:37.219Z,996.50
2019-01-31T09:03:37.210Z,996.46
2019-01-31T09:04:37.195Z,996.48
2019-01-31T09:05:37.180Z,996.48
2019-01-31T09:06:37.199Z,996.49
2019-01-31T09:07:37.160Z,996.53
2019-01-31T09:08:37.146Z,996.50
2019-01-31T09:09:37.142Z,996.53
2019-01-31T09:10:37.128Z,996.52
2019-01-31T09:11:37.119Z,996.55
2019-01-31T09:12:37.126Z,996.54
2019-01-31T09:13:38.217Z,996.55
2019-01-31T09:14:37.085Z,996.57
2019-01-31T09:15:37.076Z,996.59
2019-01-31T09:16:37.066Z,996.57
2019-01-31T09:17:37.074Z,996.58
2019-01-31T09:18:37.045Z,996.62
2019-01-31T09:19:37.036Z,996.62
2019-01-31T09:20:37.028Z,996.67
2019-01-31T09:21:37.017Z,996.65
2019-01-31T09:22:37.029Z,996.65
2019-01-31T09:23:36.994Z,996.65
2019-01-31T09:24:36.985Z,996.62
2019-01-31T09:25:36.971Z,996.69
2019-01-31T09:26:36.965Z,996.66
2019-01-31T09:27:36.977Z,996.64
2019-01-31T09:28:36.945Z,996.68
2019-01-31T09:29:36.936Z,996.64
2019-01-31T09:30:36.924Z,996.63
2019-01-31T09:31:36.913Z,996.63
2019-01-31T09:32:36.918Z,996.61
2019-01-31T09:33:36.894Z,996.63
2019-01-31T09:34:36.889Z,996.62
2019-01-31T09:35:36.870Z,996.61
2019-01-31T09:36:36.861Z,996.64
2019-01-31T09:37:36.872Z,996.65
2019-01-31T09:38:36.847Z,996.64
2019-01-31T09:39:36.883Z,996.69
2019-01-31T09:40:36.851Z,996.65
2019-01-31T09:41:36.809Z,996.62
2019-01-31T09:42:36.826Z,996.63
2019-01-31T09:43:36.788Z,996.69
2019-01-31T09:44:36.783Z,996.65
2019-01-31T09:45:37.418Z,996.66
2019-01-31T09:46:36.760Z,996.66
2019-01-31T09:47:36.790Z,996.68
2019-01-31T09:48:36.740Z,996.63
2019-01-31T09:49:36.730Z,996.58
2019-01-31T09:50:36.720Z,996.62
2019-01-31T09:51:36.710Z,996.62
2019-01-31T09:52:36.697Z,996.66
2019-01-31T09:53:36.702Z,996.65
2019-01-31T09:54:36.675Z,996.64
2019-01-31T09:55:36.669Z,996.66
2019-01-31T09:56:36.656Z,996.65
2019-01-31T09:57:36.648Z,996.65
2019-01-31T09:58:36.652Z,996.67
2019-01-31T09:59:36.622Z,996.69
2019-01-31T10:00:36.610Z,996.68
2019-01-31T10:01:36.605Z,996.64
2019-01-31T10:02:36.592Z,996.66
2019-01-31T10:03:36.607Z,996.61
2019-01-31T10:04:36.575Z,996.60
2019-01-31T10:05:36.568Z,996.59
2019-01-31T10:06:36.551Z,996.63
2019-01-31T10:07:36.541Z,996.58
2019-01-31T10:08:36.545Z,996.59
2019-01-31T10:09:36.520Z,996.59
2019-01-31T10:10:36.532Z,996.60
2019-01-31T10:11:36.547Z,996.64
2019-01-31T10:12:38.451Z,996.61
2019-01-31T10:13:36.519Z,996.61
2019-01-31T10:14:39.215Z,996.57
2019-01-31T10:15:36.466Z,996.60
2019-01-31T10:16:36.498Z,996.56
2019-01-31T10:17:36.441Z,996.56
2019-01-31T10:18:36.514Z,996.57
2019-01-31T10:19:36.475Z,996.52
2019-01-31T10:20:36.408Z,996.55
2019-01-31T10:21:36.461Z,996.53
2019-01-31T10:22:36.435Z,996.57
2019-01-31T10:23:36.449Z,996.57
2019-01-31T10:24:36.388Z,996.56
2019-01-31T10:25:36.365Z,996.56
2019-01-31T10:26:36.350Z,996.58
2019-01-31T10:27:36.334Z,996.56
2019-01-31T10:28:36.343Z,996.54
2019-01-31T10:29:36.326Z,996.54
2019-01-31T10:30:36.311Z,996.49
2019-01-31T10:31:36.293Z,996.51
2019-01-31T10:32:36.286Z,996.47
2019-01-31T10:33:36.300Z,996.50
2019-01-31T10:34:36.265Z,996.49
2019-01-31T10:35:36.255Z,996.42
2019-01-31T10:36:36.245Z,996.45
2019-01-31T10:37:36.243Z,996.42
2019-01-31T10:38:36.222Z,996.47
2019-01-31T10:39:36.236Z,996.43
2019-01-31T10:40:36.200Z,996.46
2019-01-31T10:41:36.192Z,996.47
2019-01-31T10:42:36.184Z,996.48
2019-01-31T10:43:36.174Z,996.45
2019-01-31T10:44:36.173Z,996.47
2019-01-31T10:45:36.157Z,996.44
2019-01-31T10:46:36.144Z,996.48
2019-01-31T10:47:36.126Z,996.46
2019-01-31T10:48:36.187Z,996.47
2019-01-31T10:49:36.122Z,996.40
2019-01-31T10:50:36.098Z,996.40
2019-01-31T10:51:36.090Z,996.39
2019-01-31T10:52:36.077Z,996.41
2019-01-31T10:53:36.071Z,996.41
2019-01-31T10:54:36.075Z,996.37
2019-01-31T10:55:36.045Z,996.40
2019-01-31T10:56:36.040Z,996.39
2019-01-31T10:57:36.044Z,996.42
2019-01-31T10:58:36.016Z,996.41
2019-01-31T10:59:36.021Z,996.37
2019-01-31T11:00:36.001Z,996.37
2019-01-31T11:01:35.984Z,996.39
2019-01-31T11:02:35.974Z,996.38
2019-01-31T11:03:35.974Z,996.39
2019-01-31T11:04:35.969Z,996.41
2019-01-31T11:05:35.941Z,996.34
2019-01-31T11:06:35.939Z,996.33
2019-01-31T11:07:35.930Z,996.32
2019-01-31T11:08:35.917Z,996.32
2019-01-31T11:09:35.928Z,996.29
2019-01-31T11:10:35.897Z,996.32
2019-01-31T11:11:35.883Z,996.26
2019-01-31T11:12:35.881Z,996.27
2019-01-31T11:13:35.863Z,996.34
2019-01-31T11:14:35.868Z,996.29
2019-01-31T11:15:35.841Z,996.28
2019-01-31T11:16:35.834Z,996.23
2019-01-31T11:17:35.897Z,996.21
2019-01-31T11:18:35.810Z,996.24
2019-01-31T11:19:35.835Z,996.21
2019-01-31T11:20:35.800Z,996.17
2019-01-31T11:21:35.779Z,996.20
2019-01-31T11:22:35.773Z,996.27
2019-01-31T11:23:35.757Z,996.19
2019-01-31T11:24:35.756Z,996.27
2019-01-31T11:25:35.763Z,996.26
2019-01-31T11:26:35.729Z,996.27
2019-01-31T11:27:35.721Z,996.26
2019-01-31T11:28:35.712Z,996.23
2019-01-31T11:29:35.698Z,996.24
2019-01-31T11:30:35.700Z,996.27
2019-01-31T11:31:35.677Z,996.22
2019-01-31T11:32:38.423Z,996.26
2019-01-31T11:33:35.657Z,996.23
2019-01-31T11:34:35.651Z,996.25
2019-01-31T11:35:35.653Z,996.22
2019-01-31T11:36:35.629Z,996.19
2019-01-31T11:37:35.615Z,996.23
2019-01-31T11:38:35.609Z,996.25
2019-01-31T11:39:35.602Z,996.17
2019-01-31T11:40:35.600Z,996.22
2019-01-31T11:41:35.572Z,996.21
2019-01-31T11:42:35.570Z,996.22
2019-01-31T11:43:35.558Z,996.20
2019-01-31T11:44:37.955Z,996.21
2019-01-31T11:45:35.550Z,996.22
2019-01-31T11:46:35.524Z,996.22
2019-01-31T11:47:35.514Z,996.19
2019-01-31T11:48:35.504Z,996.20
2019-01-31T11:49:35.493Z,996.16
2019-01-31T11:50:35.501Z,996.15
2019-01-31T11:51:35.473Z,996.21
2019-01-31T11:52:35.462Z,996.23
2019-01-31T11:53:35.449Z,996.20
2019-01-31T11:54:35.443Z,996.17
2019-01-31T11:55:35.442Z,996.24
2019-01-31T11:56:35.437Z,996.20
2019-01-31T11:57:35.422Z,996.22
2019-01-31T11:58:35.405Z,996.20
2019-01-31T11:59:35.390Z,996.21
2019-01-31T12:00:35.410Z,996.14
2019-01-31T12:01:35.370Z,996.16
2019-01-31T12:02:35.361Z,996.13
2019-01-31T12:03:35.351Z,996.18
2019-01-31T12:04:35.342Z,996.21
2019-01-31T12:05:35.354Z,996.17
2019-01-31T12:06:35.320Z,996.21
2019-01-31T12:07:36.609Z,996.19
2019-01-31T12:08:35.298Z,996.19
2019-01-31T12:09:35.284Z,996.18
2019-01-31T12:10:35.279Z,996.22
2019-01-31T12:11:35.280Z,996.20
2019-01-31T12:12:35.257Z,996.19
2019-01-31T12:13:35.255Z,996.25
2019-01-31T12:14:35.233Z,996.19
2019-01-31T12:15:35.223Z,996.18
2019-01-31T12:16:35.232Z,996.15
2019-01-31T12:17:35.205Z,996.20
2019-01-31T12:18:35.198Z,996.17
2019-01-31T12:19:35.186Z,996.19
2019-01-31T12:20:35.182Z,996.17
2019-01-31T12:21:35.177Z,996.16
2019-01-31T12:22:35.162Z,996.23
2019-01-31T12:23:35.146Z,996.17
2019-01-31T12:24:35.130Z,996.16
2019-01-31T12:25:35.131Z,996.16
2019-01-31T12:26:35.129Z,996.14
2019-01-31T12:27:35.099Z,996.17
2019-01-31T12:28:35.095Z,996.17